Dalton, Wisconsin
Current Conditions -  °F | °C
As of 9:56 PM on Thursday 27 Nov 2014 (Local Time) from KY50 Reporting Station
Clear Clear  
Wind Chill: -6°   Ceiling: Unl
Heat Index: -6°   Visibility: 10mi
Dew Point: -11°   Wind: 0mph
Humidity: 79%   Direction: NA
Pressure: 30.37"   Gusts: NA
Location:  43.66°N, 89.21°W
Report Text: KY50 280356Z AUTO 00000KT 10SM CLR M21/M24 A3037 RMK AO2 TSNO T12111238 SLP303
Loading
Personal Weather Stations






























Interactive Weather Map New forecast layout! Learn more

10-Day Weather Forecast

Advertisements
Track Severe Weather on mobile